Terminal Aerodrome Forecast
Issued by NWS

Home | Current Version | Previous Version | Text Only | Print | Product List | Glossary Off
Versions: 1 2 3 4 5 6 7 8 9 10 11 12 13 14 15 16 17 18 19 20 21 22

000
FTUS41 KCLE 271613 AAB
TAFFDY
TAF AMD
KFDY 271613Z 2716/2812 04012KT P6SM VCSH SCT005 OVC025
      TEMPO 2716/2718 2SM -SHRA BR BKN005 OVC012
     FM272000 35018G30KT 4SM -SHRA BR OVC005
     FM280500 33014KT 4SM BR OVC007
     FM281100 32012KT P6SM BKN006 OVC015=

USA.gov is the U.S. government's official web portal to all federal, state and local government web resources and services.